Pickle Lake Airport
CYPL : now visible

Airfield :











YOU CAN JOIN US ON...

 
LOGIN :

Register | Disclaimer

   EN    FR    IT 

 









Legend :    VFR   Marginal VFR   IFR   Intensive IFR   Very Intensive IFR
Visi :
Ceiling :
>= 8 km
>= 3000ft
5 to 8 km
1000 to 3000 ft
1500m to 5 km
500 to 1000 ft
800 to 1500m
200 to 500 ft
< 800m
< 200 ft
Symbols :   Thunderstorms  Fog  Heavy snow  Heavy precipitations  Wind > 20 kt






- Airport Elevation : 1267 ft
- IATA code : YPL


CYPL - Pickle Lake

CURRENT METAR :
  • 151600Z AUTO 24007KT 9SM CLR M28/M31 A2987 RMK SLP171

EXPIRED METARs :
  • 151500Z AUTO 25007KT 9SM CLR M29/M32 A2987 RMK SLP168
  • 151441Z AUTO 24006KT 9SM SCT004 M30/M33 A2987 RMK SLP167
  • 151421Z AUTO 24006KT 9SM BKN004 M30/M33 A2986 RMK SLP166
  • 151407Z AUTO 26006KT 9SM SCT004 M30/M33 A2986 RMK SLP164

TAF AMD TAF CYPL
Valid from the 15 at 14:00 until the 16 at 02:00 UTC


151440Z 1514/1602 24008KT P6SM FEW010
FM152200 21010KT P6SM BKN025
TEMPO 1522/1601 OVC020
FM160100 22008KT P6SM -SN OVC030
TEMPO 1601/1602 21/2SM -SN OVC020 RMK FCST BASED ON AUTO OBS. AUTO OBS REP NON-REPRESENTATIVE CLD HGT. NXT FCST BY 152000Z



MET'MAP, your aeronautical weather chart ! - Copyright ORBIFLY December 2007 - Disclaimer

ORBIFLY MET'MAP TEAM :

Programming & Development : Alexandra Zaïnal
Concept & original design : Baudouin d'Aumeries
Assistance for programming : Marc-Olivier Méhu
Technical & hardware support : Manuel Goepfert

Contact : metmap@orbifly.com




SOURCES & CREDITS :

   NOAA       Earth
Advisory